Time;durP1;ratioP1;P1;durP2;ratioP2;P2;SDS_P1;SDS_P2;PMS_P1;PMS_P2;Temp;Humidity;BMP_temperature;BMP_pressure;BME280_temperature;BME280_humidity;BME280_pressure;Samples;Min_cycle;Max_cycle;Signal;HPM_P1;HPM_P2
2022/12/22 03:27:09;;;;;;;12.15;10.40;;;11.10;91.40;;;;;;5030852;28;20039;-66
2022/12/22 03:29:35;;;;;;;14.80;9.65;;;11.10;91.40;;;;;;5031406;28;20025;-66
2022/12/22 03:32:00;;;;;;;13.57;10.10;;;11.10;91.40;;;;;;5031289;28;20040;-66
2022/12/22 03:34:26;;;;;;;10.68;9.45;;;11.20;91.40;;;;;;5031461;28;20030;-66
2022/12/22 03:36:51;;;;;;;10.85;9.52;;;11.20;91.40;;;;;;5030715;28;20104;-66
2022/12/22 03:39:17;;;;;;;10.85;9.30;;;11.20;91.40;;;;;;5029534;28;20057;-66
2022/12/22 03:47:10;;;;;;;10.00;8.38;;;11.20;91.30;;;;;;5031315;28;20136;-67
2022/12/22 03:49:36;;;;;;;9.35;7.88;;;11.20;91.30;;;;;;5030735;28;20096;-67
2022/12/22 03:52:01;;;;;;;10.60;8.32;;;11.30;91.30;;;;;;5030508;28;20461;-67
2022/12/22 03:54:27;;;;;;;11.50;9.68;;;11.30;91.30;;;;;;5030525;28;20381;-67
2022/12/22 03:56:53;;;;;;;11.32;9.10;;;11.30;91.20;;;;;;5029435;28;20111;-67
2022/12/22 03:59:19;;;;;;;9.63;8.13;;;11.30;91.20;;;;;;5030117;28;20037;-67
2022/12/22 04:01:50;;;;;;;9.98;8.70;;;11.30;91.20;;;;;;5030297;28;20029;-66
2022/12/22 04:04:18;;;;;;;16.50;9.98;;;11.30;91.20;;;;;;5030783;28;20022;-66
2022/12/22 04:06:45;;;;;;;10.35;9.20;;;11.30;91.20;;;;;;5031278;28;20018;-66
2022/12/22 04:09:11;;;;;;;9.57;8.18;;;11.20;91.20;;;;;;5030719;28;20467;-66
2022/12/22 04:14:21;;;;;;;9.95;8.77;;;11.30;91.20;;;;;;5028413;28;20054;-66
2022/12/22 04:16:47;;;;;;;10.68;8.82;;;11.30;91.40;;;;;;5033264;28;20060;-66
2022/12/22 04:19:14;;;;;;;10.57;9.00;;;11.30;91.10;;;;;;5037823;28;20025;-66
2022/12/22 04:21:40;;;;;;;11.63;8.68;;;11.30;91.10;;;;;;5035731;28;20035;-66
2022/12/22 04:24:06;;;;;;;9.93;8.70;;;11.30;91.10;;;;;;5035812;28;20029;-66
2022/12/22 04:26:32;;;;;;;9.25;8.25;;;11.30;91.10;;;;;;5035227;28;20029;-66
2022/12/22 04:28:58;;;;;;;14.63;8.25;;;11.30;91.10;;;;;;5034422;28;20087;-66
2022/12/22 04:31:23;;;;;;;11.27;7.65;;;11.30;91.10;;;;;;5030991;28;20427;-66
2022/12/22 04:33:49;;;;;;;9.30;8.13;;;11.40;91.20;;;;;;5031281;28;20026;-65
2022/12/22 04:36:15;;;;;;;10.27;8.55;;;11.40;91.20;;;;;;5030604;28;20025;-66
2022/12/22 04:38:41;;;;;;;9.88;8.63;;;11.40;91.20;;;;;;5031586;28;20631;-65
2022/12/22 04:41:08;;;;;;;13.25;8.75;;;11.40;91.10;;;;;;5045180;28;20117;-66
2022/12/22 04:43:33;;;;;;;9.88;7.88;;;11.40;91.20;;;;;;5031492;28;20065;-66
2022/12/22 04:45:59;;;;;;;13.95;8.48;;;11.40;91.20;;;;;;5029533;28;20039;-66
2022/12/22 04:48:26;;;;;;;9.73;7.72;;;11.50;91.20;;;;;;5028339;28;20025;-66
2022/12/22 04:50:54;;;;;;;10.15;8.15;;;11.50;91.20;;;;;;5028829;28;20439;-66
2022/12/22 04:53:20;;;;;;;12.63;8.18;;;11.50;91.10;;;;;;5030144;28;20029;-66
2022/12/22 04:55:46;;;;;;;13.95;8.88;;;11.50;91.10;;;;;;5029869;28;20083;-66
2022/12/22 04:58:12;;;;;;;20.05;8.45;;;11.50;91.10;;;;;;5029802;28;20049;-66
2022/12/22 05:00:38;;;;;;;12.07;8.50;;;11.50;91.10;;;;;;5028604;28;20862;-66
2022/12/22 05:03:03;;;;;;;14.50;8.82;;;11.50;91.00;;;;;;5029037;28;20053;-66
2022/12/22 05:05:29;;;;;;;13.90;8.65;;;11.50;91.00;;;;;;5028269;28;20112;-65
2022/12/22 05:07:54;;;;;;;16.27;8.68;;;11.50;91.00;;;;;;5029176;28;20053;-65
2022/12/22 05:10:20;;;;;;;12.43;8.90;;;11.50;90.90;;;;;;5029397;28;20083;-66
2022/12/22 05:12:55;;;;;;;13.77;8.45;;;11.50;90.90;;;;;;5029544;28;20104;-66
2022/12/22 05:15:26;;;;;;;17.33;9.15;;;11.60;91.00;;;;;;5029205;28;20025;-66
2022/12/22 05:17:51;;;;;;;17.50;8.82;;;11.50;91.00;;;;;;5029257;28;20030;-66
2022/12/22 05:20:18;;;;;;;11.82;7.90;;;11.60;91.00;;;;;;5029706;28;20408;-66
2022/12/22 05:22:43;;;;;;;15.50;8.02;;;11.50;91.00;;;;;;5029330;28;20484;-65
2022/12/22 05:25:09;;;;;;;15.95;9.50;;;11.60;91.00;;;;;;5029708;28;20053;-66
2022/12/22 05:27:35;;;;;;;23.55;8.70;;;11.50;90.90;;;;;;5028594;28;20031;-66
2022/12/22 05:30:01;;;;;;;16.20;8.73;;;11.50;90.90;;;;;;5028259;28;20704;-66
2022/12/22 05:32:27;;;;;;;23.55;8.93;;;11.50;90.90;;;;;;5028619;28;20523;-66
2022/12/22 05:34:52;;;;;;;13.23;7.85;;;11.50;91.00;;;;;;5029216;28;20084;-66
2022/12/22 05:37:18;;;;;;;13.10;9.10;;;11.50;91.00;;;;;;5029420;28;20045;-65
2022/12/22 05:39:43;;;;;;;12.77;7.70;;;11.50;91.00;;;;;;5029638;28;20033;-66
2022/12/22 05:42:09;;;;;;;16.27;7.30;;;11.50;91.00;;;;;;5027921;28;20029;-66
2022/12/22 05:44:35;;;;;;;11.55;7.18;;;11.50;91.00;;;;;;5029349;28;20025;-66
2022/12/22 05:47:00;;;;;;;16.33;7.88;;;11.50;91.00;;;;;;5029503;28;20071;-66
2022/12/22 05:49:26;;;;;;;15.05;8.10;;;11.50;91.10;;;;;;5032973;28;20045;-67
2022/12/22 05:51:53;;;;;;;9.20;6.82;;;11.50;91.10;;;;;;5033427;28;20043;-66
2022/12/22 05:54:19;;;;;;;12.52;8.15;;;11.40;91.00;;;;;;5032414;28;20079;-66
2022/12/22 05:56:44;;;;;;;10.05;7.53;;;11.50;91.10;;;;;;5033344;28;20036;-66
2022/12/22 05:59:10;;;;;;;9.48;7.82;;;11.50;91.10;;;;;;5031138;28;20116;-66
2022/12/22 06:01:36;;;;;;;9.15;7.60;;;11.50;91.10;;;;;;5027279;28;20052;-66
2022/12/22 06:04:02;;;;;;;10.30;7.90;;;11.50;91.00;;;;;;5029119;28;20045;-66
2022/12/22 06:06:28;;;;;;;10.90;8.07;;;11.50;91.00;;;;;;5031552;28;20022;-66
2022/12/22 06:08:53;;;;;;;9.68;7.47;;;11.50;91.00;;;;;;5031670;28;20029;-66
2022/12/22 06:11:19;;;;;;;9.68;7.25;;;11.60;91.00;;;;;;5032380;28;20087;-66
2022/12/22 06:13:45;;;;;;;11.25;8.80;;;11.60;91.00;;;;;;5033059;28;20034;-67
2022/12/22 06:16:10;;;;;;;12.32;9.20;;;11.50;90.90;;;;;;5033544;28;20036;-66
2022/12/22 06:18:36;;;;;;;10.57;7.88;;;11.50;90.80;;;;;;5032804;28;20030;-66
2022/12/22 06:21:02;;;;;;;12.02;8.73;;;11.50;90.80;;;;;;5030220;28;20025;-66
2022/12/22 06:23:28;;;;;;;13.18;9.10;;;11.50;90.80;;;;;;5034500;28;20022;-67
2022/12/22 06:25:59;;;;;;;12.35;8.50;;;11.50;90.90;;;;;;5033289;28;20029;-65
2022/12/22 06:28:25;;;;;;;10.65;7.57;;;11.50;90.90;;;;;;5033231;28;20022;-66
2022/12/22 06:30:52;;;;;;;10.25;7.80;;;11.50;90.80;;;;;;5032070;28;20061;-67
2022/12/22 06:33:17;;;;;;;11.80;8.95;;;11.50;90.80;;;;;;5032749;28;20025;-67
2022/12/22 06:35:43;;;;;;;13.55;9.50;;;11.50;90.80;;;;;;5032366;28;20032;-66
2022/12/22 06:38:08;;;;;;;12.40;8.70;;;11.40;90.80;;;;;;5032003;28;20033;-66
2022/12/22 06:40:34;;;;;;;12.95;8.82;;;11.40;90.90;;;;;;5027583;28;20037;-67
2022/12/22 06:43:09;;;;;;;12.15;9.10;;;11.40;90.90;;;;;;5030824;28;20036;-67
2022/12/22 06:45:40;;;;;;;13.95;9.88;;;11.30;90.90;;;;;;5032066;28;20022;-65
2022/12/22 06:48:07;;;;;;;11.82;8.23;;;11.30;90.90;;;;;;5031640;28;20014;-66
2022/12/22 06:50:32;;;;;;;11.95;7.90;;;11.30;91.00;;;;;;5032425;28;20044;-68
2022/12/22 06:52:58;;;;;;;10.70;7.90;;;11.30;91.10;;;;;;5032648;28;20611;-66
2022/12/22 06:55:24;;;;;;;11.38;8.23;;;11.30;91.00;;;;;;5032018;28;20032;-66
2022/12/22 06:57:49;;;;;;;13.18;9.10;;;11.30;91.00;;;;;;5032703;28;20021;-67
2022/12/22 07:00:15;;;;;;;11.43;8.35;;;11.30;91.00;;;;;;5026284;28;20025;-66
2022/12/22 07:02:41;;;;;;;11.65;8.60;;;11.30;91.00;;;;;;5034854;28;20017;-66
2022/12/22 07:05:07;;;;;;;10.50;7.35;;;11.30;91.00;;;;;;5030677;28;20037;-66
2022/12/22 07:07:32;;;;;;;10.45;7.53;;;11.30;91.00;;;;;;5030639;28;20021;-66
2022/12/22 07:09:58;;;;;;;10.88;7.30;;;11.30;91.00;;;;;;5031849;28;20022;-66
2022/12/22 07:12:24;;;;;;;9.68;6.95;;;11.30;91.00;;;;;;5031835;28;20030;-66
2022/12/22 07:14:49;;;;;;;10.30;7.22;;;11.30;91.00;;;;;;5032595;28;20377;-66
2022/12/22 07:17:15;;;;;;;9.95;6.85;;;11.30;91.00;;;;;;5031971;28;20395;-66
2022/12/22 07:19:41;;;;;;;11.52;8.00;;;11.40;91.00;;;;;;5028120;28;20029;-66
2022/12/22 07:22:06;;;;;;;10.75;7.80;;;11.40;90.90;;;;;;5036489;28;20460;-65
2022/12/22 07:24:32;;;;;;;9.00;6.60;;;11.40;90.90;;;;;;5029359;28;20025;-65
2022/12/22 07:26:58;;;;;;;10.13;6.80;;;11.40;90.90;;;;;;5028005;28;20022;-66
2022/12/22 07:29:23;;;;;;;10.05;7.20;;;11.40;90.90;;;;;;5028496;28;20038;-66
2022/12/22 07:31:49;;;;;;;10.43;7.35;;;11.40;90.80;;;;;;5028497;28;20022;-66
2022/12/22 07:34:14;;;;;;;10.43;7.63;;;11.30;90.80;;;;;;5032210;28;20034;-66
2022/12/22 07:36:40;;;;;;;10.57;7.35;;;11.30;90.90;;;;;;5029126;28;20088;-66
2022/12/22 07:39:06;;;;;;;12.60;8.27;;;11.30;90.90;;;;;;5023187;28;20034;-67
2022/12/22 07:44:16;;;;;;;12.88;9.20;;;11.20;90.80;;;;;;5028116;28;20048;-65
2022/12/22 07:46:42;;;;;;;14.63;10.55;;;11.20;90.80;;;;;;5025323;28;20021;-66
2022/12/22 07:51:56;;;;;;;14.90;10.13;;;11.00;90.80;;;;;;5026905;28;20048;-66
2022/12/22 07:54:22;;;;;;;13.40;9.25;;;10.90;90.90;;;;;;5022148;28;20108;-66
2022/12/22 07:56:47;;;;;;;15.85;11.27;;;10.90;91.00;;;;;;5024790;28;20567;-66
2022/12/22 07:59:13;;;;;;;13.57;9.85;;;10.90;90.90;;;;;;5024498;28;20030;-66
2022/12/22 08:01:40;;;;;;;16.75;11.98;;;10.90;91.00;;;;;;5022296;28;20041;-65
2022/12/22 08:04:06;;;;;;;19.10;12.75;;;10.80;90.90;;;;;;5024432;28;20476;-66
2022/12/22 08:06:33;;;;;;;19.42;12.77;;;10.80;91.00;;;;;;5021862;28;20025;-66
2022/12/22 08:08:59;;;;;;;21.00;14.57;;;10.80;91.00;;;;;;5025064;28;21948;-66
2022/12/22 08:11:25;;;;;;;18.77;12.48;;;10.70;91.00;;;;;;5024215;28;20041;-66
2022/12/22 08:13:50;;;;;;;18.48;12.30;;;10.70;91.00;;;;;;5023551;28;20072;-66
2022/12/22 08:16:16;;;;;;;20.42;13.20;;;10.80;91.00;;;;;;5021049;28;20109;-66
2022/12/22 08:18:43;;;;;;;21.13;12.50;;;10.80;91.00;;;;;;5029796;28;20037;-66
2022/12/22 08:21:08;;;;;;;21.80;12.45;;;10.80;91.00;;;;;;5032171;28;20033;-66
2022/12/22 08:23:35;;;;;;;21.38;13.90;;;10.80;91.00;;;;;;5029627;28;20080;-66
2022/12/22 08:26:10;;;;;;;20.25;12.85;;;10.90;91.00;;;;;;5028605;28;20022;-66
2022/12/22 08:28:41;;;;;;;21.85;13.23;;;10.90;90.90;;;;;;5031533;28;20022;-66
2022/12/22 08:31:08;;;;;;;18.80;11.40;;;11.00;90.90;;;;;;5032191;28;20022;-67
2022/12/22 08:33:34;;;;;;;22.27;13.38;;;11.00;90.80;;;;;;5030049;28;20041;-66
2022/12/22 08:36:00;;;;;;;19.33;12.55;;;11.10;90.80;;;;;;5030693;28;20065;-66
2022/12/22 08:38:25;;;;;;;20.63;12.90;;;11.10;90.70;;;;;;5030412;28;20075;-65
2022/12/22 08:40:51;;;;;;;18.45;12.00;;;11.10;90.60;;;;;;5027420;28;20455;-66
2022/12/22 08:43:18;;;;;;;23.50;13.20;;;11.20;90.60;;;;;;5030198;28;20146;-65
2022/12/22 08:45:44;;;;;;;21.50;12.70;;;11.20;90.50;;;;;;5029262;28;20109;-65
2022/12/22 08:48:10;;;;;;;25.60;14.98;;;11.20;90.50;;;;;;5026936;28;20052;-66
2022/12/22 08:50:35;;;;;;;22.88;14.02;;;11.20;90.40;;;;;;5029169;28;20044;-66
2022/12/22 08:53:06;;;;;;;22.95;13.40;;;11.10;90.40;;;;;;5030171;28;20025;-66
2022/12/22 08:55:32;;;;;;;22.08;13.57;;;11.10;90.50;;;;;;5029724;28;20438;-66
2022/12/22 08:57:58;;;;;;;23.88;14.73;;;11.10;90.50;;;;;;5029819;28;20499;-66
2022/12/22 09:00:24;;;;;;;24.05;14.80;;;11.10;90.40;;;;;;5031158;28;20108;-66
2022/12/22 09:02:49;;;;;;;21.70;13.55;;;11.10;90.40;;;;;;5030710;28;20032;-66
2022/12/22 09:05:15;;;;;;;21.88;14.43;;;11.10;90.40;;;;;;5028464;28;20034;-66
2022/12/22 09:07:41;;;;;;;22.77;14.10;;;11.10;90.40;;;;;;5030473;28;20014;-66
2022/12/22 09:10:08;;;;;;;23.65;15.30;;;11.10;90.40;;;;;;5030980;28;20448;-66
2022/12/22 09:12:34;;;;;;;25.08;15.10;;;11.10;90.40;;;;;;5030810;28;20068;-66
2022/12/22 09:15:00;;;;;;;24.83;15.35;;;11.10;90.30;;;;;;5031162;28;20101;-66
2022/12/22 09:17:25;;;;;;;25.75;14.82;;;11.00;90.20;;;;;;5030887;28;20025;-66
2022/12/22 09:19:51;;;;;;;22.52;14.00;;;11.00;90.30;;;;;;5030445;28;20033;-66
2022/12/22 09:22:16;;;;;;;27.17;14.48;;;11.00;90.30;;;;;;5028591;28;20017;-66
2022/12/22 09:24:42;;;;;;;21.92;14.02;;;11.00;90.30;;;;;;5030580;28;20021;-66
2022/12/22 09:27:08;;;;;;;23.45;12.73;;;11.00;90.30;;;;;;5031475;28;20021;-65
2022/12/22 09:29:35;;;;;;;19.83;11.73;;;11.00;90.30;;;;;;5036597;28;20048;-65
2022/12/22 09:32:02;;;;;;;20.95;11.95;;;10.90;90.20;;;;;;5046111;28;20106;-65
2022/12/22 09:34:27;;;;;;;21.33;12.38;;;10.90;90.20;;;;;;5033143;28;20040;-65
2022/12/22 09:36:53;;;;;;;21.17;12.35;;;10.80;90.10;;;;;;5042988;28;20087;-65
2022/12/22 09:39:18;;;;;;;20.73;11.38;;;10.80;90.40;;;;;;5040181;28;20045;-65
2022/12/22 09:41:49;;;;;;;21.20;11.98;;;10.80;90.20;;;;;;5032564;28;20053;-65
2022/12/22 09:44:40;;;;;;;22.77;11.93;;;10.80;90.10;;;;;;5038350;28;20013;-66
2022/12/22 09:47:18;;;;;;;21.80;12.32;;;10.80;90.10;;;;;;5039842;28;20490;-66
2022/12/22 09:49:43;;;;;;;24.08;13.05;;;10.80;90.10;;;;;;5031705;28;20030;-65
2022/12/22 09:52:23;;;;;;;21.90;12.82;;;10.90;90.00;;;;;;5034322;28;20479;-65
2022/12/22 09:54:49;;;;;;;22.50;12.90;;;10.90;90.00;;;;;;5044887;28;20455;-66
2022/12/22 09:57:14;;;;;;;24.25;13.40;;;10.90;89.90;;;;;;5041710;28;20048;-66
2022/12/22 09:59:40;;;;;;;22.30;12.77;;;10.90;89.80;;;;;;5043098;28;20040;-67
2022/12/22 10:02:40;;;;;;;20.17;11.45;;;10.80;89.70;;;;;;5039536;28;20677;-66
2022/12/22 10:05:15;;;;;;;24.00;12.38;;;10.80;89.70;;;;;;5042833;28;20010;-66
2022/12/22 10:07:42;;;;;;;18.42;10.80;;;10.70;89.70;;;;;;5032811;28;20021;-66
2022/12/22 10:10:23;;;;;;;21.63;11.70;;;10.60;89.70;;;;;;5049018;28;20044;-66
2022/12/22 10:12:50;;;;;;;20.42;11.43;;;10.70;89.80;;;;;;5038625;28;20032;-66
2022/12/22 10:15:15;;;;;;;19.52;11.25;;;10.60;89.80;;;;;;5042139;28;20032;-66
2022/12/22 10:17:41;;;;;;;19.00;10.65;;;10.60;89.80;;;;;;5030432;28;20026;-66
2022/12/22 10:20:19;;;;;;;19.33;10.88;;;10.60;89.80;;;;;;5029536;28;20037;-66
2022/12/22 10:22:59;;;;;;;20.27;10.90;;;10.50;89.90;;;;;;5046725;28;20014;-66
2022/12/22 10:25:31;;;;;;;20.52;11.05;;;10.50;89.90;;;;;;5032253;28;20017;-66
2022/12/22 10:27:59;;;;;;;20.60;10.85;;;10.50;89.90;;;;;;5043516;28;20541;-66
2022/12/22 10:30:33;;;;;;;22.58;11.82;;;10.50;89.90;;;;;;5030893;28;20052;-66
2022/12/22 10:33:04;;;;;;;18.40;10.05;;;10.40;89.50;;;;;;5027834;28;20033;-67
2022/12/22 10:35:53;;;;;;;18.15;10.20;;;10.40;89.60;;;;;;5031832;28;20045;-67
2022/12/22 10:38:36;;;;;;;19.20;10.13;;;10.50;89.60;;;;;;5029743;28;20018;-65
2022/12/22 10:41:33;;;;;;;20.42;10.95;;;10.50;90.00;;;;;;5033586;28;20030;-64
2022/12/22 10:44:05;;;;;;;17.95;9.93;;;10.50;89.20;;;;;;5029488;28;20037;-64
2022/12/22 10:46:44;;;;;;;19.57;9.67;;;10.60;89.20;;;;;;5029855;28;20052;-65
2022/12/22 10:49:35;;;;;;;20.48;10.93;;;10.60;89.20;;;;;;5033586;28;20395;-65
2022/12/22 10:52:16;;;;;;;20.98;9.48;;;10.60;89.00;;;;;;5035535;28;20037;-65
2022/12/22 10:54:44;;;;;;;18.27;10.10;;;10.60;88.90;;;;;;5034331;28;20036;-65
2022/12/22 10:57:12;;;;;;;18.40;9.82;;;10.50;88.70;;;;;;5033163;28;20025;-65
2022/12/22 10:59:50;;;;;;;18.77;10.40;;;10.40;88.60;;;;;;5037201;28;20373;-65
2022/12/22 11:02:25;;;;;;;15.77;9.25;;;10.30;88.50;;;;;;5036824;28;20030;-65
2022/12/22 11:04:52;;;;;;;14.50;8.40;;;10.30;88.60;;;;;;5039035;28;20147;-66
2022/12/22 11:07:18;;;;;;;15.13;8.68;;;10.30;88.80;;;;;;5032426;28;20025;-66
2022/12/22 11:09:44;;;;;;;14.55;8.30;;;10.20;88.60;;;;;;5031344;28;20031;-65
2022/12/22 11:12:16;;;;;;;13.60;7.82;;;10.20;88.50;;;;;;5032893;28;20116;-67
2022/12/22 11:15:07;;;;;;;14.00;8.60;;;10.20;88.50;;;;;;5034255;28;20038;-66
2022/12/22 11:17:48;;;;;;;15.07;7.97;;;10.20;88.50;;;;;;5034785;28;20026;-67
2022/12/22 11:20:55;;;;;;;13.05;7.82;;;10.20;88.50;;;;;;5031083;28;20030;-66
2022/12/22 11:23:46;;;;;;;13.27;7.10;;;10.30;88.50;;;;;;5021323;28;20128;-66
2022/12/22 11:26:39;;;;;;;16.27;8.18;;;10.40;88.50;;;;;;5032599;28;20072;-66
2022/12/22 11:29:26;;;;;;;14.60;7.60;;;10.40;88.30;;;;;;5032773;28;20112;-67
2022/12/22 11:32:22;;;;;;;10.75;6.82;;;10.40;88.10;;;;;;5030138;28;20475;-66
2022/12/22 11:35:04;;;;;;;14.68;8.35;;;10.50;88.20;;;;;;5035932;28;20052;-66
2022/12/22 11:37:47;;;;;;;15.05;9.32;;;10.40;88.10;;;;;;5024416;28;20120;-66
2022/12/22 11:40:22;;;;;;;12.77;7.20;;;10.50;88.20;;;;;;5027960;28;20025;-66
2022/12/22 11:43:05;;;;;;;16.42;9.25;;;10.50;88.20;;;;;;5032630;28;20491;-66
2022/12/22 11:45:37;;;;;;;17.77;9.73;;;10.50;88.20;;;;;;5031178;28;20029;-66
2022/12/22 11:48:22;;;;;;;;;;;10.60;88.00;;;;;;5027517;28;20545;-66
2022/12/22 11:50:52;;;;;;;17.50;10.07;;;10.70;87.90;;;;;;5025481;28;19921;-66
2022/12/22 11:53:46;;;;;;;19.20;11.63;;;10.60;87.90;;;;;;5027283;28;20026;-66
2022/12/22 11:56:31;;;;;;;23.20;14.52;;;10.60;87.80;;;;;;5030641;28;20037;-67
2022/12/22 11:59:34;;;;;;;26.30;14.95;;;10.50;87.70;;;;;;5025920;28;20034;-66
2022/12/22 12:02:12;;;;;;;20.58;12.95;;;10.40;87.70;;;;;;5030161;28;20703;-67
2022/12/22 12:05:13;;;;;;;20.05;12.77;;;10.50;88.00;;;;;;5027172;28;20492;-66
2022/12/22 12:07:50;;;;;;;22.02;14.05;;;10.40;87.90;;;;;;5031875;28;20021;-66
2022/12/22 12:10:35;;;;;;;25.88;15.43;;;10.50;88.10;;;;;;5030154;28;20512;-67
2022/12/22 12:13:28;;;;;;;24.92;15.80;;;10.40;88.10;;;;;;5029998;28;20018;-65
2022/12/22 12:16:04;;;;;;;23.08;14.52;;;10.40;88.30;;;;;;5027974;28;20061;-66
2022/12/22 12:18:50;;;;;;;22.38;13.82;;;10.40;88.40;;;;;;5027440;28;20029;-66
2022/12/22 12:21:24;;;;;;;21.40;13.93;;;10.50;88.40;;;;;;5028286;28;20118;-66
2022/12/22 12:24:22;;;;;;;21.38;13.43;;;10.60;88.30;;;;;;5030925;28;20092;-66
2022/12/22 12:26:57;;;;;;;24.27;14.48;;;10.70;88.30;;;;;;5029449;28;20049;-66
2022/12/22 12:30:01;;;;;;;22.20;13.32;;;10.70;88.10;;;;;;5029011;28;20096;-66
2022/12/22 12:32:29;;;;;;;18.67;11.88;;;10.80;88.20;;;;;;4965892;28;20066;-66
2022/12/22 12:35:05;;;;;;;24.55;14.55;;;10.70;88.20;;;;;;4958082;28;20039;-66
2022/12/22 12:37:37;;;;;;;21.33;13.80;;;10.70;88.20;;;;;;4996962;28;20044;-66
2022/12/22 12:40:06;;;;;;;;;;;10.80;88.40;;;;;;5026780;28;20029;-67
2022/12/22 12:42:38;;;;;;;19.88;12.77;;;10.80;88.30;;;;;;5027013;28;20387;-66
2022/12/22 12:45:31;;;;;;;19.63;11.80;;;10.80;88.40;;;;;;5023193;28;20033;-67
2022/12/22 12:48:36;;;;;;;20.13;11.93;;;10.90;88.60;;;;;;5025364;28;20558;-65
2022/12/22 12:51:01;;;;;;;19.88;12.05;;;10.90;88.50;;;;;;5023896;28;20665;-66
2022/12/22 12:53:28;;;;;;;15.13;10.50;;;10.90;88.40;;;;;;5025189;28;20112;-66
2022/12/22 12:56:03;;;;;;;18.33;11.93;;;10.80;88.40;;;;;;5025628;28;20040;-67
2022/12/22 12:58:37;;;;;;;17.73;10.25;;;10.80;88.50;;;;;;5022115;28;20079;-66
2022/12/22 13:01:18;;;;;;;14.40;9.55;;;10.90;88.60;;;;;;5025929;28;20021;-67
2022/12/22 13:03:45;;;;;;;15.93;10.02;;;10.90;88.60;;;;;;5026032;28;20029;-67
2022/12/22 13:06:48;;;;;;;17.63;10.18;;;10.90;88.50;;;;;;5028704;28;20048;-67
2022/12/22 13:09:20;;;;;;;16.08;9.52;;;10.90;88.30;;;;;;5022467;28;20026;-66
2022/12/22 13:11:45;;;;;;;16.38;10.00;;;10.80;88.20;;;;;;5028586;28;20059;-67
2022/12/22 13:14:49;;;;;;;15.10;9.63;;;10.80;87.80;;;;;;5025474;28;20057;-66
2022/12/22 13:17:37;;;;;;;14.25;8.90;;;10.70;87.30;;;;;;5026884;28;20108;-66
2022/12/22 13:20:03;;;;;;;15.30;8.98;;;10.60;86.80;;;;;;5026558;28;20091;-66
2022/12/22 13:22:28;;;;;;;14.93;8.98;;;10.60;86.70;;;;;;5025669;28;20021;-66
2022/12/22 13:24:55;;;;;;;13.43;8.82;;;10.50;86.40;;;;;;5027148;28;20044;-66
2022/12/22 13:27:21;;;;;;;14.55;8.40;;;10.50;86.50;;;;;;5026800;28;20507;-65
2022/12/22 13:29:48;;;;;;;15.30;9.82;;;10.50;86.30;;;;;;5026175;28;20030;-66
2022/12/22 13:32:43;;;;;;;14.95;9.80;;;10.50;86.10;;;;;;5030198;28;20048;-66
2022/12/22 13:35:17;;;;;;;19.10;11.80;;;10.50;85.90;;;;;;5028893;28;20474;-67
2022/12/22 13:37:48;;;;;;;16.95;11.60;;;10.50;85.80;;;;;;5028439;28;20013;-66
2022/12/22 13:40:27;;;;;;;17.65;11.57;;;10.40;85.50;;;;;;5029704;28;20033;-66
2022/12/22 13:42:55;;;;;;;17.55;10.23;;;10.40;85.80;;;;;;5030771;28;20018;-67
2022/12/22 13:45:32;;;;;;;17.63;12.25;;;10.50;85.80;;;;;;5031784;28;20608;-66
2022/12/22 13:48:01;;;;;;;20.88;13.10;;;10.40;85.90;;;;;;5027277;28;20021;-67
2022/12/22 13:50:40;;;;;;;22.20;14.13;;;10.40;85.80;;;;;;5025399;28;20033;-66
2022/12/22 13:53:09;;;;;;;23.17;15.82;;;10.40;85.80;;;;;;5025774;28;20120;-66
2022/12/22 13:55:35;;;;;;;22.35;13.60;;;10.30;85.80;;;;;;5025503;28;20025;-67
2022/12/22 13:58:26;;;;;;;18.98;13.07;;;10.40;86.00;;;;;;5021634;28;21349;-66
2022/12/22 14:01:23;;;;;;;20.70;12.85;;;10.40;86.10;;;;;;5020853;28;20033;-66
2022/12/22 14:04:00;;;;;;;23.73;15.07;;;10.40;86.00;;;;;;5026940;28;20033;-66
2022/12/22 14:06:28;;;;;;;22.77;15.57;;;10.40;86.10;;;;;;5025595;28;20022;-67
2022/12/22 14:09:18;;;;;;;19.98;13.65;;;10.40;86.10;;;;;;5022951;28;20579;-66
2022/12/22 14:12:06;;;;;;;20.83;14.40;;;10.50;86.30;;;;;;5030718;28;20040;-67
2022/12/22 14:14:37;;;;;;;20.73;14.13;;;10.50;86.20;;;;;;5031107;28;20041;-67
2022/12/22 14:17:03;;;;;;;20.13;14.10;;;10.50;86.20;;;;;;5025474;28;20113;-66
2022/12/22 14:19:32;;;;;;;23.42;15.18;;;10.50;86.10;;;;;;5029196;28;20029;-67
2022/12/22 14:22:12;;;;;;;22.13;15.00;;;10.50;86.10;;;;;;5031493;28;20064;-67
2022/12/22 14:24:56;;;;;;;21.88;14.85;;;10.60;86.20;;;;;;5030472;28;20014;-67
2022/12/22 14:27:37;;;;;;;24.70;16.05;;;10.60;86.20;;;;;;5029921;28;20395;-67
2022/12/22 14:30:15;;;;;;;33.80;21.92;;;10.60;86.30;;;;;;5031087;28;20489;-66
2022/12/22 14:32:47;;;;;;;34.65;23.27;;;10.50;86.20;;;;;;5028502;28;20030;-67
2022/12/22 14:35:21;;;;;;;45.88;35.33;;;10.50;86.30;;;;;;5028314;28;20029;-67
2022/12/22 14:37:53;;;;;;;37.30;29.42;;;10.50;86.20;;;;;;5028821;28;20060;-67
2022/12/22 14:40:37;;;;;;;40.05;31.50;;;10.50;86.30;;;;;;5028456;28;20056;-66
2022/12/22 14:43:06;;;;;;;27.48;21.60;;;10.60;86.30;;;;;;5028449;28;20030;-66
2022/12/22 14:45:32;;;;;;;28.10;20.75;;;10.50;86.30;;;;;;5030125;28;20514;-66
2022/12/22 14:47:58;;;;;;;25.13;18.35;;;10.50;86.30;;;;;;5027465;28;20037;-66
2022/12/22 14:50:26;;;;;;;29.75;22.42;;;10.50;86.40;;;;;;5027954;28;20109;-67
2022/12/22 14:52:57;;;;;;;27.15;19.85;;;10.60;86.40;;;;;;5025749;28;20040;-66
2022/12/22 14:55:36;;;;;;;29.35;22.80;;;10.60;87.10;;;;;;5025080;28;20030;-66
2022/12/22 14:58:10;;;;;;;23.92;17.98;;;10.60;86.40;;;;;;5022532;28;21418;-66
2022/12/22 15:00:40;;;;;;;27.38;21.60;;;10.60;86.40;;;;;;5024030;28;20079;-66
2022/12/22 15:03:24;;;;;;;21.80;15.52;;;10.70;86.40;;;;;;5029629;28;20048;-66
2022/12/22 15:05:51;;;;;;;25.30;17.50;;;10.80;86.50;;;;;;5029763;28;20092;-67
2022/12/22 15:08:36;;;;;;;25.17;17.55;;;10.80;86.20;;;;;;5027151;28;20507;-66
2022/12/22 15:11:02;;;;;;;23.67;17.25;;;10.80;86.20;;;;;;5030389;28;20048;-67
2022/12/22 15:13:29;;;;;;;23.08;16.95;;;10.70;86.20;;;;;;5031860;28;20025;-65
2022/12/22 15:15:55;;;;;;;23.27;16.08;;;10.70;86.30;;;;;;5030705;28;20033;-66
2022/12/22 15:18:26;;;;;;;24.58;17.42;;;10.70;86.30;;;;;;5031079;28;20080;-66
2022/12/22 15:20:56;;;;;;;22.20;15.67;;;10.70;86.30;;;;;;5032765;28;20029;-65
2022/12/22 15:23:22;;;;;;;28.05;20.02;;;10.70;86.30;;;;;;5026468;28;20042;-65
2022/12/22 15:25:47;;;;;;;25.70;19.05;;;10.70;86.30;;;;;;5031891;28;20033;-65
2022/12/22 15:28:13;;;;;;;26.80;18.85;;;10.70;86.20;;;;;;5029145;28;20013;-66
2022/12/22 15:30:39;;;;;;;27.08;19.73;;;10.70;86.30;;;;;;5031520;28;20037;-64
2022/12/22 15:33:12;;;;;;;32.15;22.30;;;10.70;86.30;;;;;;5035201;28;20061;-65
2022/12/22 15:35:38;;;;;;;25.27;18.80;;;10.60;86.30;;;;;;5029096;28;20033;-65
2022/12/22 15:38:13;;;;;;;26.02;18.48;;;10.50;86.50;;;;;;5030420;28;20034;-67
2022/12/22 15:40:38;;;;;;;35.65;24.15;;;10.50;86.70;;;;;;5028020;28;20037;-66
2022/12/22 15:43:04;;;;;;;24.85;18.73;;;10.40;86.50;;;;;;5030694;28;20045;-66
2022/12/22 15:45:29;;;;;;;26.60;19.92;;;10.40;86.80;;;;;;5030550;28;20089;-66
2022/12/22 15:47:56;;;;;;;23.73;17.80;;;10.50;86.90;;;;;;5030283;28;20025;-66
2022/12/22 15:50:42;;;;;;;21.15;16.10;;;10.50;86.90;;;;;;5033421;28;20029;-66
2022/12/22 15:53:13;;;;;;;24.88;17.90;;;10.60;86.90;;;;;;5030981;28;20056;-67
2022/12/22 15:55:44;;;;;;;25.67;17.93;;;10.60;86.90;;;;;;5024282;28;20027;-66
2022/12/22 15:58:14;;;;;;;22.17;16.10;;;10.60;86.90;;;;;;5028955;28;20029;-66
2022/12/22 16:00:40;;;;;;;21.58;16.23;;;10.60;87.00;;;;;;5030192;28;20033;-66
2022/12/22 16:03:06;;;;;;;25.02;18.25;;;10.60;87.00;;;;;;5028686;28;20526;-66
2022/12/22 16:05:32;;;;;;;23.88;16.90;;;10.60;87.00;;;;;;5029291;28;20108;-66
2022/12/22 16:08:00;;;;;;;20.77;15.07;;;10.60;87.00;;;;;;5026378;28;20026;-66
2022/12/22 16:10:29;;;;;;;22.88;16.15;;;10.70;87.10;;;;;;5027045;28;20627;-66
2022/12/22 16:13:00;;;;;;;21.63;14.70;;;10.60;87.10;;;;;;5026862;28;20104;-67
2022/12/22 16:15:29;;;;;;;21.13;15.80;;;10.70;87.20;;;;;;5029239;28;20124;-66
2022/12/22 16:17:55;;;;;;;22.08;15.63;;;10.60;87.20;;;;;;5026970;28;20032;-66
2022/12/22 16:20:20;;;;;;;23.52;16.80;;;10.60;87.20;;;;;;5027847;28;20033;-66
2022/12/22 16:22:48;;;;;;;25.48;18.38;;;10.60;87.30;;;;;;5028280;28;20056;-66
2022/12/22 16:25:18;;;;;;;22.58;16.02;;;10.60;87.50;;;;;;5026662;28;20646;-66
2022/12/22 16:27:48;;;;;;;22.77;16.10;;;10.50;87.60;;;;;;5021257;28;20662;-66
2022/12/22 16:30:20;;;;;;;19.75;13.30;;;10.50;87.60;;;;;;5023055;28;20030;-65
2022/12/22 16:32:45;;;;;;;20.67;15.02;;;10.40;87.90;;;;;;5023323;28;20030;-66